createdAt,value
2022-11-05T00:00:50.307Z,100.00
2022-11-05T00:03:35.396Z,100.00
2022-11-05T00:06:20.352Z,100.00
2022-11-05T00:09:05.289Z,100.00
2022-11-05T00:11:50.085Z,100.00
2022-11-05T00:14:35.052Z,100.00
2022-11-05T00:17:01.480Z,100.00
2022-11-05T00:19:27.881Z,100.00
2022-11-05T00:22:12.870Z,100.00
2022-11-05T00:24:58.068Z,100.00
2022-11-05T00:27:24.516Z,100.00
2022-11-05T00:29:50.983Z,100.00
2022-11-05T00:32:17.517Z,100.00
2022-11-05T00:34:43.914Z,100.00
2022-11-05T00:37:10.320Z,100.00
2022-11-05T00:39:37.154Z,100.00
2022-11-05T00:42:22.602Z,100.00
2022-11-05T00:45:00.954Z,100.00
2022-11-05T00:47:46.024Z,100.00
2022-11-05T00:50:13.013Z,100.00
2022-11-05T00:55:44.768Z,100.00
2022-11-05T00:58:17.196Z,100.00
2022-11-05T01:00:50.122Z,100.00
2022-11-05T01:03:19.247Z,100.00
2022-11-05T01:06:13.012Z,100.00
2022-11-05T01:08:41.214Z,100.00
2022-11-05T01:11:34.708Z,100.00
2022-11-05T01:14:05.137Z,100.00
2022-11-05T01:16:32.054Z,100.00
2022-11-05T01:18:58.685Z,100.00
2022-11-05T01:21:25.170Z,100.00
2022-11-05T01:23:51.813Z,100.00
2022-11-05T01:26:18.321Z,100.00
2022-11-05T01:28:44.907Z,100.00
2022-11-05T01:31:11.579Z,100.00
2022-11-05T01:33:38.090Z,100.00
2022-11-05T01:36:05.077Z,100.00
2022-11-05T01:38:33.717Z,100.00
2022-11-05T01:41:00.465Z,100.00
2022-11-05T01:43:27.118Z,100.00
2022-11-05T01:45:58.321Z,100.00
2022-11-05T01:48:33.374Z,100.00
2022-11-05T01:51:06.960Z,100.00
2022-11-05T01:53:38.719Z,100.00
2022-11-05T01:56:11.604Z,100.00
2022-11-05T01:58:42.936Z,100.00
2022-11-05T02:01:09.685Z,100.00
2022-11-05T02:03:36.381Z,100.00
2022-11-05T02:06:03.425Z,100.00
2022-11-05T02:08:36.797Z,100.00
2022-11-05T02:11:03.631Z,100.00
2022-11-05T02:13:30.195Z,100.00
2022-11-05T02:16:13.552Z,100.00
2022-11-05T02:18:40.101Z,100.00
2022-11-05T02:21:35.894Z,100.00
2022-11-05T02:24:11.337Z,100.00
2022-11-05T02:26:58.150Z,100.00
2022-11-05T02:29:42.615Z,100.00
2022-11-05T02:32:25.906Z,100.00
2022-11-05T02:35:07.876Z,100.00
2022-11-05T02:37:51.940Z,100.00
2022-11-05T02:40:28.720Z,100.00
2022-11-05T02:43:15.292Z,100.00
2022-11-05T02:46:00.453Z,100.00
2022-11-05T02:48:42.901Z,100.00
2022-11-05T02:51:18.646Z,100.00
2022-11-05T02:53:50.964Z,100.00
2022-11-05T02:56:34.207Z,100.00
2022-11-05T02:59:00.685Z,100.00
2022-11-05T03:01:27.385Z,100.00
2022-11-05T03:04:00.628Z,100.00
2022-11-05T03:06:45.972Z,100.00
2022-11-05T03:09:34.203Z,100.00
2022-11-05T03:12:25.320Z,100.00
2022-11-05T03:15:10.903Z,100.00
2022-11-05T03:18:08.534Z,100.00
2022-11-05T03:21:04.547Z,100.00
2022-11-05T03:23:42.918Z,100.00
2022-11-05T03:26:26.413Z,100.00
2022-11-05T03:29:01.977Z,100.00
2022-11-05T03:31:30.953Z,100.00
2022-11-05T03:34:01.124Z,100.00
2022-11-05T03:36:41.415Z,100.00
2022-11-05T03:39:15.130Z,100.00
2022-11-05T03:41:47.015Z,100.00
2022-11-05T03:44:22.135Z,100.00
2022-11-05T03:46:50.933Z,100.00
2022-11-05T03:49:25.244Z,100.00
2022-11-05T03:52:03.085Z,100.00
2022-11-05T03:54:29.891Z,100.00
2022-11-05T03:57:11.507Z,100.00
2022-11-05T03:59:45.894Z,100.00
2022-11-05T04:02:14.343Z,100.00
2022-11-05T04:04:41.702Z,100.00
2022-11-05T04:07:28.865Z,100.00
2022-11-05T04:10:13.880Z,100.00
2022-11-05T04:12:59.106Z,100.00
2022-11-05T04:15:25.932Z,100.00
2022-11-05T04:17:52.806Z,100.00
2022-11-05T04:20:37.781Z,100.00
2022-11-05T04:23:25.348Z,100.00
2022-11-05T04:25:51.991Z,100.00
2022-11-05T04:28:19.409Z,100.00
2022-11-05T04:30:46.002Z,100.00
2022-11-05T04:33:15.418Z,100.00
2022-11-05T04:35:47.034Z,100.00
2022-11-05T04:38:19.086Z,100.00
2022-11-05T04:40:50.670Z,100.00
2022-11-05T04:43:19.564Z,100.00
2022-11-05T04:45:46.601Z,100.00
2022-11-05T04:48:13.755Z,100.00
2022-11-05T04:50:40.450Z,100.00
2022-11-05T04:53:06.982Z,100.00
2022-11-05T04:55:33.506Z,100.00
2022-11-05T04:57:59.997Z,100.00
2022-11-05T05:00:26.536Z,100.00
2022-11-05T05:02:53.087Z,100.00
2022-11-05T05:05:19.846Z,100.00
2022-11-05T05:07:46.571Z,100.00
2022-11-05T05:10:13.595Z,100.00
2022-11-05T05:12:40.355Z,100.00
2022-11-05T05:15:07.298Z,100.00
2022-11-05T05:17:34.200Z,100.00
2022-11-05T05:20:19.536Z,100.00
2022-11-05T05:22:52.999Z,100.00
2022-11-05T05:25:19.561Z,100.00
2022-11-05T05:27:46.072Z,100.00
2022-11-05T05:30:12.949Z,100.00
2022-11-05T05:32:39.547Z,100.00
2022-11-05T05:35:06.440Z,100.00
2022-11-05T05:37:32.986Z,100.00
2022-11-05T05:39:59.497Z,100.00
2022-11-05T05:42:26.265Z,100.00
2022-11-05T05:44:52.936Z,100.00
2022-11-05T05:47:19.398Z,100.00
2022-11-05T05:49:46.071Z,100.00
2022-11-05T05:52:14.919Z,100.00
2022-11-05T05:54:43.133Z,100.00
2022-11-05T05:57:10.213Z,100.00
2022-11-05T05:59:36.968Z,100.00
2022-11-05T06:02:05.985Z,100.00
2022-11-05T06:04:32.750Z,100.00
2022-11-05T06:07:01.735Z,100.00
2022-11-05T06:09:28.749Z,100.00
2022-11-05T06:11:55.331Z,100.00
2022-11-05T06:14:22.124Z,100.00
2022-11-05T06:16:48.835Z,100.00
2022-11-05T06:19:15.609Z,100.00
2022-11-05T06:21:42.341Z,100.00
2022-11-05T06:24:09.215Z,100.00
2022-11-05T06:26:35.854Z,100.00
2022-11-05T06:29:02.675Z,100.00
2022-11-05T06:31:29.285Z,100.00
2022-11-05T06:33:55.939Z,100.00
2022-11-05T06:36:22.710Z,100.00
2022-11-05T06:38:49.521Z,100.00
2022-11-05T06:41:16.103Z,100.00
2022-11-05T06:43:43.564Z,100.00
2022-11-05T06:46:11.431Z,100.00
2022-11-05T06:48:39.278Z,100.00
2022-11-05T06:51:09.560Z,100.00
2022-11-05T06:53:36.656Z,100.00
2022-11-05T06:56:05.646Z,100.00
2022-11-05T06:58:32.799Z,100.00
2022-11-05T07:01:11.992Z,100.00
2022-11-05T07:03:39.528Z,100.00
2022-11-05T07:06:07.297Z,100.00
2022-11-05T07:08:35.226Z,100.00
2022-11-05T07:11:02.043Z,100.00
2022-11-05T07:13:28.884Z,100.00
2022-11-05T07:15:56.492Z,100.00
2022-11-05T07:18:23.500Z,100.00
2022-11-05T07:20:50.379Z,100.00
2022-11-05T07:23:17.242Z,100.00
2022-11-05T07:25:44.049Z,100.00
2022-11-05T07:28:11.492Z,100.00
2022-11-05T07:30:38.534Z,100.00
2022-11-05T07:33:05.115Z,100.00
2022-11-05T07:35:37.187Z,100.00
2022-11-05T07:38:17.963Z,100.00
2022-11-05T07:40:53.407Z,100.00
2022-11-05T07:43:20.554Z,100.00
2022-11-05T07:45:47.756Z,100.00
2022-11-05T07:48:14.522Z,100.00
2022-11-05T07:50:44.380Z,100.00
2022-11-05T07:53:16.193Z,100.00
2022-11-05T07:55:44.410Z,100.00
2022-11-05T07:58:11.805Z,100.00
2022-11-05T08:00:38.701Z,100.00
2022-11-05T08:03:20.440Z,100.00
2022-11-05T08:06:18.256Z,100.00
2022-11-05T08:09:05.069Z,100.00
2022-11-05T08:25:50.536Z,100.00
2022-11-05T08:28:17.059Z,100.00
2022-11-05T08:30:43.472Z,100.00
2022-11-05T08:33:12.858Z,100.00
2022-11-05T08:35:40.177Z,100.00
2022-11-05T08:38:08.991Z,100.00
2022-11-05T08:40:36.812Z,100.00
2022-11-05T08:43:06.756Z,100.00
2022-11-05T08:45:34.828Z,100.00
2022-11-05T08:48:05.086Z,100.00
2022-11-05T08:50:32.072Z,100.00
2022-11-05T08:52:58.700Z,100.00
2022-11-05T08:55:25.824Z,100.00
2022-11-05T08:57:56.641Z,100.00
2022-11-05T09:00:23.628Z,66.63
2022-11-05T09:02:50.045Z,59.94
2022-11-05T09:05:16.589Z,40.70
2022-11-05T09:07:43.050Z,37.38
2022-11-05T09:10:09.756Z,37.70
2022-11-05T09:12:36.133Z,35.32
2022-11-05T09:15:02.658Z,35.42
2022-11-05T09:17:29.180Z,35.32
2022-11-05T09:19:55.592Z,36.91
2022-11-05T09:22:22.062Z,37.69
2022-11-05T09:24:48.486Z,40.40
2022-11-05T09:27:15.257Z,43.46
2022-11-05T09:29:42.380Z,43.02
2022-11-05T09:32:09.281Z,46.77
2022-11-05T09:34:36.079Z,54.17
2022-11-05T09:37:02.642Z,59.81
2022-11-05T09:39:29.109Z,61.48
2022-11-05T09:42:02.528Z,60.57
2022-11-05T09:44:40.251Z,64.75
2022-11-05T09:47:14.636Z,69.00
2022-11-05T09:49:50.881Z,74.40
2022-11-05T09:52:35.358Z,72.39
2022-11-05T09:55:07.114Z,70.95
2022-11-05T09:57:48.951Z,71.15
2022-11-05T10:00:19.082Z,70.19
2022-11-05T10:02:55.713Z,67.76
2022-11-05T10:05:24.569Z,67.20
2022-11-05T10:07:55.232Z,65.95
2022-11-05T10:10:41.898Z,69.36
2022-11-05T10:13:32.433Z,70.76
2022-11-05T10:16:20.427Z,67.67
2022-11-05T10:19:14.923Z,67.41
2022-11-05T10:22:05.632Z,66.05
2022-11-05T10:24:28.255Z,66.26
2022-11-05T10:26:55.723Z,60.87
2022-11-05T10:29:29.342Z,65.29
2022-11-05T10:32:01.675Z,71.45
2022-11-05T10:34:33.452Z,77.29
2022-11-05T10:37:00.386Z,77.60
2022-11-05T10:39:29.953Z,79.27
2022-11-05T10:42:45.279Z,79.31
2022-11-05T10:45:25.483Z,84.39
2022-11-05T10:47:54.878Z,83.92
2022-11-05T10:50:30.197Z,83.95
2022-11-05T10:53:03.426Z,84.34
2022-11-05T10:55:33.311Z,83.89
2022-11-05T10:58:17.947Z,87.38
2022-11-05T11:00:59.759Z,85.01
2022-11-05T11:03:34.719Z,86.66
2022-11-05T11:06:20.379Z,88.04
2022-11-05T11:08:48.767Z,88.77
2022-11-05T11:11:33.100Z,89.64
2022-11-05T11:14:19.186Z,90.55
2022-11-05T11:16:48.354Z,90.95
2022-11-05T11:19:25.466Z,89.08
2022-11-05T11:22:13.386Z,90.28
2022-11-05T11:24:41.272Z,91.54
2022-11-05T11:27:14.242Z,90.26
2022-11-05T11:29:48.162Z,90.76
2022-11-05T11:32:19.380Z,90.61
2022-11-05T11:34:51.381Z,90.85
2022-11-05T11:37:27.778Z,91.96
2022-11-05T11:40:02.058Z,91.47
2022-11-05T11:42:34.769Z,93.65
2022-11-05T11:45:14.419Z,91.94
2022-11-05T11:47:44.439Z,90.60
2022-11-05T11:50:31.104Z,90.67
2022-11-05T11:53:16.992Z,89.64
2022-11-05T11:56:12.489Z,89.44
2022-11-05T11:58:53.987Z,91.28
2022-11-05T12:01:23.524Z,93.72
2022-11-05T12:04:41.054Z,91.26
2022-11-05T12:07:19.306Z,92.11
2022-11-05T12:10:10.028Z,91.70
2022-11-05T12:13:14.506Z,92.38
2022-11-05T12:15:57.691Z,94.00
2022-11-05T12:18:33.048Z,95.77
2022-11-05T12:21:14.089Z,94.29
2022-11-05T12:23:46.245Z,93.95
2022-11-05T12:26:57.562Z,94.39
2022-11-05T12:29:35.944Z,92.47
2022-11-05T12:32:08.610Z,91.99
2022-11-05T12:34:50.291Z,91.21
2022-11-05T12:37:30.721Z,91.70
2022-11-05T12:40:21.998Z,91.51
2022-11-05T12:43:11.697Z,90.33
2022-11-05T12:45:47.705Z,88.57
2022-11-05T12:48:37.047Z,90.01
2022-11-05T12:51:37.553Z,91.26
2022-11-05T12:54:22.295Z,90.96
2022-11-05T12:56:57.576Z,92.02
2022-11-05T12:59:57.020Z,90.84
2022-11-05T13:02:48.966Z,89.69
2022-11-05T13:05:25.470Z,88.99
2022-11-05T13:08:14.833Z,88.70
2022-11-05T13:10:46.441Z,89.12
2022-11-05T13:13:42.209Z,90.24
2022-11-05T13:16:24.311Z,89.20
2022-11-05T13:18:55.043Z,89.91
2022-11-05T13:21:24.701Z,90.55
2022-11-05T13:23:56.902Z,91.44
2022-11-05T13:26:43.126Z,91.43
2022-11-05T13:29:34.150Z,91.08
2022-11-05T13:32:17.915Z,90.78
2022-11-05T13:34:44.552Z,91.62
2022-11-05T13:37:31.841Z,92.10
2022-11-05T13:40:08.424Z,92.13
2022-11-05T13:42:44.019Z,92.07
2022-11-05T13:45:38.996Z,91.61
2022-11-05T13:48:23.989Z,92.44
2022-11-05T13:51:03.149Z,91.76
2022-11-05T13:53:54.620Z,89.69
2022-11-05T13:57:00.306Z,87.59
2022-11-05T13:59:56.361Z,90.07
2022-11-05T14:02:28.865Z,89.27
2022-11-05T14:05:01.315Z,90.73
2022-11-05T14:07:32.883Z,90.90
2022-11-05T14:10:24.693Z,91.37
2022-11-05T14:12:54.496Z,91.37
2022-11-05T14:15:26.922Z,92.77
2022-11-05T14:18:26.912Z,92.30
2022-11-05T14:21:02.656Z,94.97
2022-11-05T14:23:50.838Z,96.59
2022-11-05T14:26:24.745Z,96.24
2022-11-05T14:29:20.396Z,95.86
2022-11-05T14:32:07.943Z,95.57
2022-11-05T14:35:05.806Z,95.42
2022-11-05T14:37:33.655Z,95.76
2022-11-05T14:40:19.208Z,96.01
2022-11-05T14:42:51.783Z,96.35
2022-11-05T14:45:31.470Z,97.03
2022-11-05T14:48:00.507Z,97.82
2022-11-05T14:50:41.825Z,98.03
2022-11-05T14:53:26.248Z,98.68
2022-11-05T14:56:14.424Z,99.00
2022-11-05T14:58:42.817Z,98.81
2022-11-05T15:01:32.186Z,98.85
2022-11-05T15:04:26.508Z,98.75
2022-11-05T15:07:02.112Z,99.43
2022-11-05T15:09:40.392Z,99.96
2022-11-05T15:12:18.506Z,99.60
2022-11-05T15:15:03.815Z,99.56
2022-11-05T15:17:40.820Z,100.00
2022-11-05T15:20:14.917Z,99.54
2022-11-05T15:22:44.617Z,99.76
2022-11-05T15:25:21.184Z,99.35
2022-11-05T15:27:58.418Z,99.80
2022-11-05T15:30:25.711Z,100.00
2022-11-05T15:32:52.397Z,100.00
2022-11-05T15:35:20.531Z,99.08
2022-11-05T15:37:53.374Z,100.00
2022-11-05T15:40:23.140Z,100.00
2022-11-05T15:43:17.317Z,100.00
2022-11-05T15:45:44.263Z,100.00
2022-11-05T15:48:15.674Z,100.00
2022-11-05T15:50:42.450Z,100.00
2022-11-05T15:53:47.343Z,100.00
2022-11-05T15:56:24.341Z,100.00
2022-11-05T15:58:54.578Z,100.00
2022-11-05T16:01:28.375Z,100.00
2022-11-05T16:04:20.839Z,100.00
2022-11-05T16:06:50.915Z,100.00
2022-11-05T16:09:29.351Z,100.00
2022-11-05T16:12:14.165Z,100.00
2022-11-05T16:14:41.527Z,100.00
2022-11-05T16:17:20.314Z,100.00
2022-11-05T16:19:47.554Z,100.00
2022-11-05T16:22:14.466Z,100.00
2022-11-05T16:24:41.371Z,100.00
2022-11-05T16:27:20.830Z,100.00
2022-11-05T16:29:56.265Z,100.00
2022-11-05T16:32:31.003Z,100.00
2022-11-05T16:35:00.785Z,100.00
2022-11-05T16:37:37.442Z,100.00
2022-11-05T16:40:14.279Z,100.00
2022-11-05T16:42:41.699Z,100.00
2022-11-05T16:45:12.072Z,100.00
2022-11-05T16:47:38.453Z,100.00
2022-11-05T16:50:25.011Z,100.00
2022-11-05T16:52:51.946Z,100.00
2022-11-05T16:55:19.285Z,100.00
2022-11-05T16:57:51.015Z,100.00
2022-11-05T17:00:20.214Z,100.00
2022-11-05T17:02:47.322Z,100.00
2022-11-05T17:05:27.497Z,100.00
2022-11-05T17:07:54.670Z,100.00
2022-11-05T17:10:22.627Z,100.00
2022-11-05T17:12:49.827Z,100.00
2022-11-05T17:15:26.671Z,100.00
2022-11-05T17:17:54.531Z,100.00
2022-11-05T17:20:20.888Z,100.00
2022-11-05T17:22:47.337Z,100.00
2022-11-05T17:25:13.742Z,100.00
2022-11-05T17:27:40.304Z,100.00
2022-11-05T17:30:07.501Z,100.00
2022-11-05T17:32:33.961Z,100.00
2022-11-05T17:35:00.412Z,100.00
2022-11-05T17:37:26.951Z,100.00
2022-11-05T17:39:53.381Z,100.00
2022-11-05T17:42:19.880Z,100.00
2022-11-05T17:44:46.268Z,100.00
2022-11-05T17:47:12.719Z,100.00
2022-11-05T17:49:39.164Z,100.00
2022-11-05T17:52:05.582Z,100.00
2022-11-05T17:54:32.079Z,100.00
2022-11-05T17:56:58.529Z,100.00
2022-11-05T17:59:24.949Z,100.00
2022-11-05T18:01:51.511Z,100.00
2022-11-05T18:04:18.153Z,100.00
2022-11-05T18:06:44.579Z,100.00
2022-11-05T18:09:11.674Z,100.00
2022-11-05T18:11:39.268Z,100.00
2022-11-05T18:14:06.523Z,100.00
2022-11-05T18:16:34.423Z,100.00
2022-11-05T18:19:01.534Z,100.00
2022-11-05T18:21:28.227Z,100.00
2022-11-05T18:23:54.675Z,100.00
2022-11-05T18:26:21.143Z,100.00
2022-11-05T18:28:47.568Z,100.00
2022-11-05T18:31:22.097Z,100.00
2022-11-05T18:33:49.962Z,100.00
2022-11-05T18:36:21.256Z,100.00
2022-11-05T18:38:48.246Z,100.00
2022-11-05T18:41:15.728Z,100.00
2022-11-05T18:43:42.154Z,100.00
2022-11-05T18:46:08.801Z,100.00
2022-11-05T18:48:35.972Z,100.00
2022-11-05T18:51:08.843Z,100.00
2022-11-05T18:53:35.261Z,100.00
2022-11-05T18:56:10.943Z,100.00
2022-11-05T18:58:38.495Z,100.00
2022-11-05T19:01:12.516Z,100.00
2022-11-05T19:03:39.061Z,100.00
2022-11-05T19:06:05.602Z,100.00
2022-11-05T19:08:33.087Z,100.00
2022-11-05T19:10:59.960Z,100.00
2022-11-05T19:13:26.832Z,100.00
2022-11-05T19:15:53.245Z,100.00
2022-11-05T19:18:19.711Z,100.00
2022-11-05T19:20:46.103Z,100.00
2022-11-05T19:23:12.582Z,100.00
2022-11-05T19:25:39.001Z,100.00
2022-11-05T19:28:05.687Z,100.00
2022-11-05T19:30:32.116Z,100.00
2022-11-05T19:32:58.617Z,100.00
2022-11-05T19:35:25.029Z,100.00
2022-11-05T19:37:53.513Z,100.00
2022-11-05T19:40:20.429Z,100.00
2022-11-05T19:42:47.200Z,100.00
2022-11-05T19:45:42.969Z,100.00
2022-11-05T19:48:00.454Z,100.00
2022-11-05T19:50:26.908Z,100.00
2022-11-05T19:52:53.338Z,100.00
2022-11-05T19:55:19.784Z,100.00
2022-11-05T19:57:46.264Z,100.00
2022-11-05T20:00:13.161Z,100.00
2022-11-05T20:02:45.275Z,100.00
2022-11-05T20:05:13.154Z,100.00
2022-11-05T20:07:40.258Z,100.00
2022-11-05T20:10:07.872Z,100.00
2022-11-05T20:12:35.894Z,100.00
2022-11-05T20:15:03.968Z,100.00
2022-11-05T20:17:30.836Z,100.00
2022-11-05T20:19:57.740Z,100.00
2022-11-05T20:22:24.449Z,100.00
2022-11-05T20:24:50.893Z,100.00
2022-11-05T20:27:17.645Z,100.00
2022-11-05T20:29:44.114Z,100.00
2022-11-05T20:32:12.403Z,100.00
2022-11-05T20:34:41.668Z,100.00
2022-11-05T20:37:08.127Z,100.00
2022-11-05T20:39:34.595Z,100.00
2022-11-05T20:42:01.037Z,100.00
2022-11-05T20:44:27.474Z,100.00
2022-11-05T20:46:53.944Z,100.00
2022-11-05T20:49:25.186Z,100.00
2022-11-05T20:51:52.160Z,100.00
2022-11-05T20:54:18.611Z,100.00
2022-11-05T20:56:45.028Z,100.00
2022-11-05T20:59:11.475Z,100.00
2022-11-05T21:01:38.192Z,100.00
2022-11-05T21:04:05.300Z,100.00
2022-11-05T21:06:33.068Z,100.00
2022-11-05T21:08:59.666Z,100.00
2022-11-05T21:11:26.340Z,100.00
2022-11-05T21:13:52.993Z,100.00
2022-11-05T21:16:19.950Z,100.00
2022-11-05T21:18:47.512Z,100.00
2022-11-05T21:21:19.771Z,100.00
2022-11-05T21:23:46.504Z,100.00
2022-11-05T21:26:14.880Z,100.00
2022-11-05T21:28:42.045Z,100.00
2022-11-05T21:31:09.110Z,100.00
2022-11-05T21:33:35.596Z,100.00
2022-11-05T21:36:12.794Z,100.00
2022-11-05T21:38:40.957Z,100.00
2022-11-05T21:41:09.754Z,100.00
2022-11-05T21:43:38.656Z,100.00
2022-11-05T21:46:05.503Z,100.00
2022-11-05T21:48:32.449Z,100.00
2022-11-05T21:51:17.537Z,100.00
2022-11-05T21:54:02.923Z,100.00
2022-11-05T21:56:48.396Z,100.00
2022-11-05T21:59:36.500Z,100.00
2022-11-05T22:02:03.851Z,100.00
2022-11-05T22:04:32.944Z,100.00
2022-11-05T22:07:00.249Z,100.00
2022-11-05T22:09:27.849Z,100.00
2022-11-05T22:11:54.646Z,100.00
2022-11-05T22:14:21.438Z,100.00
2022-11-05T22:16:47.919Z,100.00
2022-11-05T22:19:15.018Z,100.00
2022-11-05T22:21:41.726Z,100.00
2022-11-05T22:24:08.922Z,100.00
2022-11-05T22:26:36.541Z,100.00
2022-11-05T22:29:03.753Z,100.00
2022-11-05T22:31:35.678Z,100.00
2022-11-05T22:34:03.311Z,100.00
2022-11-05T22:36:29.873Z,100.00
2022-11-05T22:38:56.312Z,100.00
2022-11-05T22:41:22.792Z,100.00
2022-11-05T22:43:49.944Z,100.00
2022-11-05T22:46:20.232Z,100.00
2022-11-05T22:48:47.374Z,100.00
2022-11-05T22:51:16.561Z,100.00
2022-11-05T22:53:43.076Z,100.00
2022-11-05T22:56:12.050Z,100.00
2022-11-05T22:58:38.747Z,100.00
2022-11-05T23:01:06.651Z,100.00
2022-11-05T23:03:33.573Z,100.00
2022-11-05T23:06:02.542Z,100.00
2022-11-05T23:08:48.776Z,100.00
2022-11-05T23:11:38.314Z,100.00
2022-11-05T23:14:10.349Z,100.00
2022-11-05T23:16:55.934Z,100.00
2022-11-05T23:19:41.598Z,100.00
2022-11-05T23:22:38.593Z,100.00
2022-11-05T23:25:08.082Z,100.00
2022-11-05T23:27:36.857Z,100.00
2022-11-05T23:30:07.525Z,100.00
2022-11-05T23:32:34.229Z,100.00
2022-11-05T23:35:00.717Z,100.00
2022-11-05T23:37:48.371Z,100.00
2022-11-05T23:40:18.386Z,100.00
2022-11-05T23:43:04.462Z,100.00
2022-11-05T23:45:50.955Z,100.00
2022-11-05T23:48:35.699Z,100.00
2022-11-05T23:51:08.290Z,100.00
2022-11-05T23:53:36.724Z,100.00
2022-11-05T23:56:09.389Z,100.00
2022-11-05T23:58:36.981Z,100.00
